createdAt,value
2023-04-07T00:00:36.866Z,0.8000
2023-04-07T00:01:38.522Z,0.8000
2023-04-07T00:02:41.328Z,0.9385
2023-04-07T00:03:41.277Z,1.0000
2023-04-07T00:04:42.974Z,1.0000
2023-04-07T00:05:44.097Z,1.0000
2023-04-07T00:06:45.528Z,1.0000
2023-04-07T00:07:55.992Z,1.0000
2023-04-07T00:08:48.412Z,1.0000
2023-04-07T00:09:49.987Z,1.0000
2023-04-07T00:10:51.434Z,1.0000
2023-04-07T00:11:52.774Z,1.0000
2023-04-07T00:12:54.239Z,1.0000
2023-04-07T00:13:55.985Z,0.8615
2023-04-07T00:14:57.162Z,0.8000
2023-04-07T00:15:58.633Z,0.8000
2023-04-07T00:16:59.999Z,0.8000
2023-04-07T00:18:01.560Z,0.8000
2023-04-07T00:19:02.908Z,0.8154
2023-04-07T00:20:04.369Z,0.9077
2023-04-07T00:21:05.781Z,0.9692
2023-04-07T00:22:07.228Z,0.8000
2023-04-07T00:23:08.665Z,0.8000
2023-04-07T00:24:10.323Z,0.8000
2023-04-07T00:25:11.518Z,0.8000
2023-04-07T00:26:12.992Z,0.8000
2023-04-07T00:27:14.470Z,0.8154
2023-04-07T00:28:15.897Z,0.9385
2023-04-07T00:29:17.312Z,1.0000
2023-04-07T00:30:18.811Z,1.0000
2023-04-07T00:31:20.230Z,1.0000
2023-04-07T00:32:21.650Z,1.0000
2023-04-07T00:33:23.089Z,1.0000
2023-04-07T00:34:24.534Z,1.0000
2023-04-07T00:35:26.042Z,1.0000
2023-04-07T00:36:27.530Z,1.0000
2023-04-07T00:37:28.867Z,1.0000
2023-04-07T00:38:30.398Z,0.9385
2023-04-07T00:39:31.724Z,0.8000
2023-04-07T00:40:33.254Z,0.8000
2023-04-07T00:41:34.767Z,0.8000
2023-04-07T00:42:36.071Z,0.8000
2023-04-07T00:43:37.528Z,0.8000
2023-04-07T00:44:39.047Z,0.8000
2023-04-07T00:45:40.611Z,0.8000
2023-04-07T00:46:42.865Z,0.8000
2023-04-07T00:47:43.507Z,0.8000
2023-04-07T00:48:44.954Z,0.8000
2023-04-07T00:49:46.320Z,0.8000
2023-04-07T00:50:47.843Z,0.8308
2023-04-07T00:51:49.223Z,1.0000
2023-04-07T00:52:50.681Z,0.9846
2023-04-07T00:53:52.089Z,1.0000
2023-04-07T00:54:53.509Z,1.0000
2023-04-07T00:55:54.932Z,1.0000
2023-04-07T00:56:56.465Z,1.0000
2023-04-07T00:57:57.837Z,1.0000
2023-04-07T00:58:59.264Z,1.0000
2023-04-07T01:00:00.689Z,1.0000
2023-04-07T01:01:02.146Z,1.0000
2023-04-07T01:02:03.790Z,1.0000
2023-04-07T01:03:05.278Z,1.0000
2023-04-07T01:04:06.581Z,0.9692
2023-04-07T01:05:08.018Z,0.8000
2023-04-07T01:06:09.449Z,0.8000
2023-04-07T01:07:10.846Z,0.8000
2023-04-07T01:08:12.266Z,0.8000
2023-04-07T01:09:13.710Z,0.8000
2023-04-07T01:10:15.190Z,0.8000
2023-04-07T01:11:16.741Z,0.8615
2023-04-07T01:12:18.112Z,0.8000
2023-04-07T01:13:19.607Z,0.8000
2023-04-07T01:14:20.974Z,0.8000
2023-04-07T01:15:22.407Z,0.8000
2023-04-07T01:16:23.888Z,0.8000
2023-04-07T01:17:25.361Z,0.8000
2023-04-07T01:18:26.748Z,0.9846
2023-04-07T01:19:28.218Z,1.0000
2023-04-07T01:20:29.554Z,1.0000
2023-04-07T01:21:31.104Z,1.0000
2023-04-07T01:22:32.554Z,1.0000
2023-04-07T01:23:33.947Z,1.0000
2023-04-07T01:24:35.331Z,1.0000
2023-04-07T01:25:36.774Z,1.0000
2023-04-07T01:26:38.222Z,1.0000
2023-04-07T01:27:39.678Z,1.0000
2023-04-07T01:28:41.126Z,1.0000
2023-04-07T01:29:42.518Z,1.0000
2023-04-07T01:30:44.052Z,0.9538
2023-04-07T01:31:45.481Z,0.8000
2023-04-07T01:32:46.956Z,0.8000
2023-04-07T01:33:48.401Z,0.8000
2023-04-07T01:34:49.815Z,0.8000
2023-04-07T01:35:51.204Z,0.9077
2023-04-07T01:36:52.709Z,1.0000
2023-04-07T01:37:54.407Z,1.0000
2023-04-07T01:38:55.567Z,0.9077
2023-04-07T01:39:57.052Z,0.8000
2023-04-07T01:40:58.437Z,0.8000
2023-04-07T01:41:59.875Z,0.8000
2023-04-07T01:43:01.373Z,0.9846
2023-04-07T01:44:02.817Z,1.0000
2023-04-07T01:45:04.257Z,1.0000
2023-04-07T01:46:05.657Z,1.0000
2023-04-07T01:47:07.147Z,1.0000
2023-04-07T01:48:08.709Z,1.0000
2023-04-07T01:49:09.986Z,1.0000
2023-04-07T01:50:12.320Z,1.0000
2023-04-07T01:51:12.885Z,1.0000
2023-04-07T01:52:14.331Z,1.0000
2023-04-07T01:53:15.853Z,1.0000
2023-04-07T01:54:17.210Z,1.0000
2023-04-07T01:55:18.683Z,1.0000
2023-04-07T01:56:20.170Z,1.0000
2023-04-07T01:57:21.605Z,1.0000
2023-04-07T01:58:23.048Z,0.9231
2023-04-07T01:59:24.493Z,0.8000
2023-04-07T02:00:26.862Z,0.8000
2023-04-07T02:01:27.449Z,0.8000
2023-04-07T02:02:28.826Z,0.9846
2023-04-07T02:03:30.290Z,0.8769
2023-04-07T02:04:31.655Z,0.9538
2023-04-07T02:05:33.091Z,0.8000
2023-04-07T02:06:34.557Z,0.8000
2023-04-07T02:07:36.012Z,0.8000
2023-04-07T02:08:37.484Z,0.8000
2023-04-07T02:09:38.921Z,0.9231
2023-04-07T02:10:40.342Z,1.0000
2023-04-07T02:11:41.777Z,1.0000
2023-04-07T02:12:43.236Z,1.0000
2023-04-07T02:13:44.737Z,1.0000
2023-04-07T02:14:46.226Z,1.0000
2023-04-07T02:15:47.692Z,1.0000
2023-04-07T02:16:49.224Z,1.0000
2023-04-07T02:17:50.549Z,1.0000
2023-04-07T02:18:52.005Z,1.0000
2023-04-07T02:19:53.416Z,0.8462
2023-04-07T02:20:54.882Z,0.8000
2023-04-07T02:21:56.172Z,0.8000
2023-04-07T02:22:57.729Z,0.8000
2023-04-07T02:23:59.174Z,0.8000
2023-04-07T02:25:00.601Z,0.8000
2023-04-07T02:26:01.986Z,0.8000
2023-04-07T02:27:03.438Z,0.8000
2023-04-07T02:28:04.888Z,0.8000
2023-04-07T02:29:06.346Z,0.8000
2023-04-07T02:30:07.765Z,0.8000
2023-04-07T02:31:09.213Z,0.8615
2023-04-07T02:32:10.703Z,1.0000
2023-04-07T02:33:12.133Z,1.0000
2023-04-07T02:34:13.612Z,1.0000
2023-04-07T02:35:15.010Z,1.0000
2023-04-07T02:36:16.461Z,1.0000
2023-04-07T02:37:17.939Z,1.0000
2023-04-07T02:38:19.235Z,1.0000
2023-04-07T02:39:20.770Z,1.0000
2023-04-07T02:40:22.287Z,1.0000
2023-04-07T02:41:23.635Z,1.0000
2023-04-07T02:42:25.069Z,0.8000
2023-04-07T02:43:26.516Z,0.8000
2023-04-07T02:44:28.000Z,0.8000
2023-04-07T02:45:29.355Z,0.8000
2023-04-07T02:46:31.091Z,0.8154
2023-04-07T02:47:32.399Z,0.8000
2023-04-07T02:48:33.720Z,0.9077
2023-04-07T02:49:35.241Z,0.8000
2023-04-07T02:50:36.691Z,0.8000
2023-04-07T02:51:38.065Z,0.8000
2023-04-07T02:52:40.331Z,0.8000
2023-04-07T02:53:40.928Z,0.9385
2023-04-07T02:54:42.374Z,0.8000
2023-04-07T02:55:43.809Z,0.8000
2023-04-07T02:56:45.257Z,0.8308
2023-04-07T02:57:46.785Z,0.8154
2023-04-07T02:58:48.246Z,0.9077
2023-04-07T02:59:49.675Z,1.0000
2023-04-07T03:00:51.097Z,1.0000
2023-04-07T03:01:52.556Z,1.0000
2023-04-07T03:02:54.089Z,1.0000
2023-04-07T03:03:55.833Z,1.0000
2023-04-07T03:04:56.874Z,1.0000
2023-04-07T03:05:58.307Z,1.0000
2023-04-07T03:06:59.813Z,1.0000
2023-04-07T03:08:01.153Z,1.0000
2023-04-07T03:09:02.588Z,1.0000
2023-04-07T03:10:04.035Z,1.0462
2023-04-07T03:11:06.342Z,1.0000
2023-04-07T03:12:06.977Z,1.0000
2023-04-07T03:13:08.392Z,1.0000
2023-04-07T03:14:09.829Z,1.0000
2023-04-07T03:15:11.253Z,1.0308
2023-04-07T03:16:12.747Z,1.2000
2023-04-07T03:17:14.208Z,1.2000
2023-04-07T03:18:15.649Z,1.0769
2023-04-07T03:19:17.087Z,1.0000
2023-04-07T03:20:18.546Z,1.0000
2023-04-07T03:21:19.969Z,1.0000
2023-04-07T03:22:21.388Z,1.0000
2023-04-07T03:23:22.893Z,1.0000
2023-04-07T03:24:24.246Z,1.0000
2023-04-07T03:25:25.773Z,1.0000
2023-04-07T03:26:27.187Z,1.0000
2023-04-07T03:27:28.585Z,1.0000
2023-04-07T03:28:30.938Z,1.0000
2023-04-07T03:29:31.510Z,1.0000
2023-04-07T03:30:32.951Z,1.0000
2023-04-07T03:31:34.329Z,1.0000
2023-04-07T03:32:35.872Z,1.0000
2023-04-07T03:33:37.284Z,1.0000
2023-04-07T03:34:38.691Z,1.0000
2023-04-07T03:35:40.189Z,1.0000
2023-04-07T03:36:41.613Z,1.0000
2023-04-07T03:37:42.977Z,1.0000
2023-04-07T03:38:44.360Z,1.1077
2023-04-07T03:39:45.892Z,1.1077
2023-04-07T03:40:47.413Z,1.0000
2023-04-07T03:41:48.847Z,1.0000
2023-04-07T03:42:50.228Z,1.0000
2023-04-07T03:43:51.843Z,1.0000
2023-04-07T03:44:53.113Z,1.0000
2023-04-07T03:45:54.645Z,1.0615
2023-04-07T03:46:56.054Z,1.2000
2023-04-07T03:47:57.496Z,1.2000
2023-04-07T03:48:58.840Z,1.2000
2023-04-07T03:50:00.324Z,1.1231
2023-04-07T03:51:01.788Z,1.1846
2023-04-07T03:52:03.250Z,1.2000
2023-04-07T03:53:04.704Z,1.2000
2023-04-07T03:54:06.071Z,1.2000
2023-04-07T03:55:07.507Z,1.2000
2023-04-07T03:56:09.007Z,1.2000
2023-04-07T03:57:10.466Z,1.2000
2023-04-07T03:58:11.855Z,1.1538
2023-04-07T03:59:13.378Z,1.1846
2023-04-07T04:00:14.732Z,1.2000
2023-04-07T04:01:16.211Z,1.2000
2023-04-07T04:02:17.727Z,1.2000
2023-04-07T04:03:19.218Z,1.2000
2023-04-07T04:04:20.586Z,1.2000
2023-04-07T04:05:21.958Z,1.2000
2023-04-07T04:06:23.388Z,1.2000
2023-04-07T04:07:24.852Z,1.2000
2023-04-07T04:08:26.272Z,1.2769
2023-04-07T04:09:27.750Z,1.2462
2023-04-07T04:10:29.161Z,1.2000
2023-04-07T04:11:30.646Z,1.2000
2023-04-07T04:12:32.084Z,1.1846
2023-04-07T04:13:33.557Z,1.0000
2023-04-07T04:14:34.986Z,1.0000
2023-04-07T04:15:36.440Z,1.0000
2023-04-07T04:16:37.762Z,1.0000
2023-04-07T04:17:39.333Z,1.0000
2023-04-07T04:18:40.750Z,1.0000
2023-04-07T04:19:42.047Z,1.0000
2023-04-07T04:20:43.574Z,1.0000
2023-04-07T04:21:45.062Z,1.0000
2023-04-07T04:22:46.512Z,1.0000
2023-04-07T04:23:47.924Z,1.0615
2023-04-07T04:24:49.445Z,1.0000
2023-04-07T04:25:50.850Z,1.0000
2023-04-07T04:26:52.258Z,1.0000
2023-04-07T04:27:53.806Z,1.0000
2023-04-07T04:28:55.151Z,1.0000
2023-04-07T04:29:56.581Z,1.0000
2023-04-07T04:30:58.032Z,1.0000
2023-04-07T04:31:59.535Z,1.0923
2023-04-07T04:33:00.921Z,1.0769
2023-04-07T04:34:02.401Z,1.0923
2023-04-07T04:35:03.771Z,1.0000
2023-04-07T04:36:05.072Z,1.0000
2023-04-07T04:37:06.746Z,1.0000
2023-04-07T04:38:09.033Z,1.0000
2023-04-07T04:39:09.961Z,1.1077
2023-04-07T04:40:11.034Z,1.0000
2023-04-07T04:41:12.470Z,1.0000
2023-04-07T04:42:13.848Z,1.0308
2023-04-07T04:43:15.294Z,1.1692
2023-04-07T04:44:16.737Z,1.2000
2023-04-07T04:45:18.142Z,1.0923
2023-04-07T04:46:19.689Z,1.2000
2023-04-07T04:47:21.283Z,1.2000
2023-04-07T04:48:22.655Z,1.2000
2023-04-07T04:49:24.504Z,1.2000
2023-04-07T04:50:25.454Z,1.2000
2023-04-07T04:51:26.981Z,1.2000
2023-04-07T04:52:28.397Z,1.2000
2023-04-07T04:53:29.871Z,1.2000
2023-04-07T04:54:31.293Z,1.2000
2023-04-07T04:55:32.700Z,1.2000
2023-04-07T04:56:34.254Z,1.2000
2023-04-07T04:57:35.687Z,1.2000
2023-04-07T04:58:37.068Z,1.2000
2023-04-07T04:59:38.469Z,1.2000
2023-04-07T05:00:39.956Z,1.2000
2023-04-07T05:01:42.110Z,1.2000
2023-04-07T05:02:42.841Z,1.2000
2023-04-07T05:03:44.598Z,1.2000
2023-04-07T05:04:45.828Z,1.2308
2023-04-07T05:05:47.158Z,1.2308
2023-04-07T05:06:48.541Z,1.2000
2023-04-07T05:07:50.039Z,1.2000
2023-04-07T05:08:51.473Z,1.2000
2023-04-07T05:09:52.905Z,1.1231
2023-04-07T05:10:54.320Z,1.0000
2023-04-07T05:11:55.753Z,1.0000
2023-04-07T05:12:57.199Z,1.0000
2023-04-07T05:13:58.637Z,1.0000
2023-04-07T05:15:00.081Z,1.0000
2023-04-07T05:16:01.559Z,1.0000
2023-04-07T05:17:02.934Z,1.0000
2023-04-07T05:18:04.363Z,1.0000
2023-04-07T05:19:05.824Z,1.0000
2023-04-07T05:20:07.226Z,1.0000
2023-04-07T05:21:08.658Z,1.0000
2023-04-07T05:22:10.100Z,1.0000
2023-04-07T05:23:11.641Z,1.0000
2023-04-07T05:24:13.018Z,1.0000
2023-04-07T05:25:14.493Z,1.0000
2023-04-07T05:26:15.894Z,1.0000
2023-04-07T05:27:17.346Z,1.0000
2023-04-07T05:28:18.791Z,1.0000
2023-04-07T05:29:20.296Z,1.0000
2023-04-07T05:30:21.678Z,1.0000
2023-04-07T05:31:23.129Z,1.0000
2023-04-07T05:32:24.575Z,1.0000
2023-04-07T05:33:25.891Z,1.0000
2023-04-07T05:34:28.390Z,1.0154
2023-04-07T05:35:28.836Z,1.1077
2023-04-07T05:36:30.397Z,1.0000
2023-04-07T05:37:31.735Z,1.0000
2023-04-07T05:38:33.069Z,1.1077
2023-04-07T05:39:34.633Z,1.0000
2023-04-07T05:40:37.592Z,1.0000
2023-04-07T05:41:37.498Z,1.1231
2023-04-07T05:42:38.936Z,1.0000
2023-04-07T05:43:40.341Z,1.0000
2023-04-07T05:44:41.744Z,1.0000
2023-04-07T05:45:43.318Z,1.0000
2023-04-07T05:46:45.488Z,1.0923
2023-04-07T05:47:46.184Z,1.2000
2023-04-07T05:48:47.573Z,1.0615
2023-04-07T05:49:49.010Z,1.0000
2023-04-07T05:50:50.437Z,1.0462
2023-04-07T05:51:51.881Z,1.0000
2023-04-07T05:52:53.293Z,1.0000
2023-04-07T05:53:54.751Z,1.1385
2023-04-07T05:54:56.249Z,1.0462
2023-04-07T05:55:57.670Z,1.0000
2023-04-07T05:56:59.146Z,1.0000
2023-04-07T05:58:00.461Z,1.0462
2023-04-07T05:59:01.924Z,1.0308
2023-04-07T06:00:03.358Z,1.1385
2023-04-07T06:01:04.721Z,1.1231
2023-04-07T06:02:06.203Z,1.0615
2023-04-07T06:03:07.846Z,1.0000
2023-04-07T06:04:09.025Z,1.0000
2023-04-07T06:05:10.577Z,1.0000
2023-04-07T06:06:11.903Z,1.0462
2023-04-07T06:07:13.343Z,1.1538
2023-04-07T06:08:14.807Z,1.0000
2023-04-07T06:09:16.200Z,1.0000
2023-04-07T06:10:18.453Z,1.0000
2023-04-07T06:11:19.133Z,1.0000
2023-04-07T06:12:20.567Z,1.0000
2023-04-07T06:13:22.010Z,1.0308
2023-04-07T06:14:23.396Z,1.0000
2023-04-07T06:15:25.029Z,1.0000
2023-04-07T06:16:26.300Z,1.0000
2023-04-07T06:17:27.731Z,1.0000
2023-04-07T06:18:29.164Z,1.0000
2023-04-07T06:19:30.604Z,1.0000
2023-04-07T06:20:32.048Z,1.0000
2023-04-07T06:21:33.464Z,1.0000
2023-04-07T06:22:34.904Z,1.0000
2023-04-07T06:23:36.295Z,1.0000
2023-04-07T06:24:37.788Z,1.0000
2023-04-07T06:25:39.252Z,1.0000
2023-04-07T06:26:40.655Z,1.0000
2023-04-07T06:27:42.086Z,1.0000
2023-04-07T06:28:43.578Z,1.0000
2023-04-07T06:29:45.014Z,1.0000
2023-04-07T06:30:46.520Z,1.0000
2023-04-07T06:31:48.244Z,1.0000
2023-04-07T06:32:49.365Z,1.0000
2023-04-07T06:33:51.074Z,1.0000
2023-04-07T06:34:52.173Z,1.0000
2023-04-07T06:35:53.605Z,1.0000
2023-04-07T06:36:55.903Z,1.0000
2023-04-07T06:37:56.479Z,1.0000
2023-04-07T06:38:57.913Z,1.0000
2023-04-07T06:39:59.393Z,1.0000
2023-04-07T06:41:00.911Z,1.0000
2023-04-07T06:42:02.243Z,1.0000
2023-04-07T06:43:03.660Z,1.0000
2023-04-07T06:44:05.509Z,1.0000
2023-04-07T06:45:06.521Z,1.0000
2023-04-07T06:46:08.142Z,1.0000
2023-04-07T06:47:09.691Z,1.0000
2023-04-07T06:48:11.075Z,1.0000
2023-04-07T06:49:12.457Z,1.0000
2023-04-07T06:50:13.935Z,1.0000
2023-04-07T06:51:15.388Z,1.0000
2023-04-07T06:52:16.809Z,1.0000
2023-04-07T06:53:18.260Z,1.0462
2023-04-07T06:54:19.738Z,1.0000
2023-04-07T06:55:21.188Z,1.0000
2023-04-07T06:56:23.437Z,1.1231
2023-04-07T06:57:26.919Z,1.0000
2023-04-07T06:58:25.432Z,1.0000
2023-04-07T06:59:26.837Z,1.0000
2023-04-07T07:00:28.272Z,1.0154
2023-04-07T07:01:30.219Z,1.0000
2023-04-07T07:02:31.401Z,1.1077
2023-04-07T07:03:32.569Z,1.0000
2023-04-07T07:04:34.135Z,1.0000
2023-04-07T07:05:35.787Z,1.0000
2023-04-07T07:06:36.993Z,1.0000
2023-04-07T07:07:38.371Z,1.0000
2023-04-07T07:08:39.848Z,1.1385
2023-04-07T07:09:41.230Z,1.0000
2023-04-07T07:10:42.655Z,1.0000
2023-04-07T07:11:44.195Z,1.0000
2023-04-07T07:12:45.620Z,1.0000
2023-04-07T07:13:47.228Z,1.0000
2023-04-07T07:14:48.486Z,1.0308
2023-04-07T07:15:49.970Z,1.0000
2023-04-07T07:16:51.578Z,1.0000
2023-04-07T07:17:52.841Z,1.0000
2023-04-07T07:18:54.200Z,1.0000
2023-04-07T07:19:55.699Z,1.0000
2023-04-07T07:20:57.079Z,1.0000
2023-04-07T07:21:58.625Z,1.0000
2023-04-07T07:22:59.831Z,1.0000
2023-04-07T07:24:01.436Z,1.0000
2023-04-07T07:25:02.876Z,1.0000
2023-04-07T07:26:04.319Z,1.0000
2023-04-07T07:27:05.734Z,1.0000
2023-04-07T07:28:07.157Z,1.0000
2023-04-07T07:29:08.526Z,1.0000
2023-04-07T07:30:10.049Z,1.0000
2023-04-07T07:31:11.477Z,1.0000
2023-04-07T07:32:12.951Z,1.0000
2023-04-07T07:33:14.344Z,1.0000
2023-04-07T07:34:15.770Z,1.0000
2023-04-07T07:35:17.224Z,1.0000
2023-04-07T07:36:18.619Z,1.0000
2023-04-07T07:37:20.935Z,1.0000
2023-04-07T07:38:21.498Z,1.0000
2023-04-07T07:39:23.077Z,1.0000
2023-04-07T07:40:24.374Z,1.0000
2023-04-07T07:41:26.086Z,1.0000
2023-04-07T07:42:27.280Z,1.0000
2023-04-07T07:43:28.686Z,1.0000
2023-04-07T07:44:32.437Z,1.0000
2023-04-07T07:45:31.545Z,1.0000
2023-04-07T07:46:33.048Z,1.0000
2023-04-07T07:47:34.536Z,1.0000
2023-04-07T07:48:35.881Z,1.0000
2023-04-07T07:49:37.302Z,1.0000
2023-04-07T07:50:38.762Z,1.0000
2023-04-07T07:51:40.158Z,1.0000
2023-04-07T07:52:42.089Z,1.0000
2023-04-07T07:53:43.090Z,1.0000
2023-04-07T07:54:44.525Z,1.0000
2023-04-07T07:55:45.943Z,1.0000
2023-04-07T07:56:47.468Z,1.0000
2023-04-07T07:57:48.863Z,1.0000
2023-04-07T07:58:50.371Z,1.0000
2023-04-07T07:59:51.798Z,1.0000
2023-04-07T08:00:53.262Z,1.0000
2023-04-07T08:01:54.643Z,1.0000
2023-04-07T08:02:56.220Z,1.0000
2023-04-07T08:03:57.567Z,1.0000
2023-04-07T08:04:59.046Z,1.0000
2023-04-07T08:06:00.324Z,1.0000
2023-04-07T08:07:01.887Z,1.0000
2023-04-07T08:08:03.565Z,1.0000
2023-04-07T08:09:04.843Z,1.0000
2023-04-07T08:10:06.221Z,1.0000
2023-04-07T08:11:07.584Z,1.0000
2023-04-07T08:12:09.094Z,1.0000
2023-04-07T08:13:10.604Z,1.0000
2023-04-07T08:14:11.927Z,1.0000
2023-04-07T08:15:13.212Z,1.0000
2023-04-07T08:16:15.004Z,1.0000
2023-04-07T08:17:16.227Z,1.0000
2023-04-07T08:18:18.553Z,1.0000
2023-04-07T08:19:19.115Z,1.0000
2023-04-07T08:20:20.595Z,1.0000
2023-04-07T08:21:22.052Z,1.0000
2023-04-07T08:22:23.375Z,1.0000
2023-04-07T08:23:24.918Z,1.0000
2023-04-07T08:24:26.272Z,1.0000
2023-04-07T08:25:27.597Z,1.0000
2023-04-07T08:26:29.216Z,1.0000
2023-04-07T08:27:30.568Z,1.0000
2023-04-07T08:28:32.230Z,1.0000
2023-04-07T08:29:33.497Z,1.0000
2023-04-07T08:30:34.901Z,1.0000
2023-04-07T08:31:36.398Z,1.0000
2023-04-07T08:32:37.810Z,1.0000
2023-04-07T08:33:39.244Z,1.0000
2023-04-07T08:34:40.692Z,1.0000
2023-04-07T08:35:42.108Z,1.0000
2023-04-07T08:36:44.142Z,1.0000
2023-04-07T08:37:45.030Z,1.0000
2023-04-07T08:38:46.426Z,1.0000
2023-04-07T08:39:47.765Z,1.0000
2023-04-07T08:40:49.353Z,1.0000
2023-04-07T08:41:50.766Z,1.0000
2023-04-07T08:42:52.159Z,1.0000
2023-04-07T08:43:53.579Z,1.0000
2023-04-07T08:44:54.998Z,1.0000
2023-04-07T08:45:56.471Z,1.0000
2023-04-07T08:46:57.932Z,1.0000
2023-04-07T08:47:59.468Z,1.0000
2023-04-07T08:49:00.775Z,1.0000
2023-04-07T08:50:02.305Z,1.0000
2023-04-07T08:51:03.807Z,1.0000
2023-04-07T08:52:05.810Z,1.0000
2023-04-07T08:53:07.459Z,1.0000
2023-04-07T08:54:08.051Z,1.0000
2023-04-07T08:55:09.486Z,1.0000
2023-04-07T08:56:10.941Z,1.0000
2023-04-07T08:57:12.359Z,1.0000
2023-04-07T08:58:13.806Z,1.0000
2023-04-07T08:59:15.371Z,1.0000
2023-04-07T09:00:17.453Z,1.0000
2023-04-07T09:01:18.196Z,1.0000
2023-04-07T09:02:19.645Z,1.0000
2023-04-07T09:03:21.142Z,1.0000
2023-04-07T09:04:22.379Z,1.0000
2023-04-07T09:05:23.898Z,1.0000
2023-04-07T09:06:25.320Z,1.0000
2023-04-07T09:07:26.823Z,1.0000
2023-04-07T09:08:28.223Z,1.0000
2023-04-07T09:09:29.729Z,1.0000
2023-04-07T09:10:31.200Z,1.0000
2023-04-07T09:11:32.639Z,1.0000
2023-04-07T09:12:34.094Z,1.0000
2023-04-07T09:13:35.436Z,1.0000
2023-04-07T09:14:36.943Z,1.0000
2023-04-07T09:15:38.944Z,1.0000
2023-04-07T09:16:39.876Z,1.0000
2023-04-07T09:17:41.339Z,1.0000
2023-04-07T09:18:42.723Z,1.0000
2023-04-07T09:19:44.060Z,1.0000
2023-04-07T09:20:45.716Z,1.0000
2023-04-07T09:21:46.846Z,1.0000
2023-04-07T09:22:48.383Z,1.0000
2023-04-07T09:23:50.212Z,1.0000
2023-04-07T09:24:51.267Z,1.0000
2023-04-07T09:25:52.759Z,1.0000
2023-04-07T09:26:54.170Z,1.0000
2023-04-07T09:27:55.584Z,1.0000
2023-04-07T09:28:56.955Z,1.0000
2023-04-07T09:29:58.438Z,1.0000
2023-04-07T09:30:59.956Z,1.0000
2023-04-07T09:32:01.402Z,1.0000
2023-04-07T09:33:02.818Z,1.0000
2023-04-07T09:34:04.222Z,1.0000
2023-04-07T09:35:05.869Z,1.0000
2023-04-07T09:36:07.154Z,1.0000
2023-04-07T09:37:08.530Z,1.0000
2023-04-07T09:38:10.025Z,1.0000
2023-04-07T09:39:11.396Z,1.0000
2023-04-07T09:40:12.800Z,1.0000
2023-04-07T09:41:14.301Z,1.0000
2023-04-07T09:42:15.703Z,1.0000
2023-04-07T09:43:17.094Z,1.0000
2023-04-07T09:44:18.598Z,1.0000
2023-04-07T09:45:33.184Z,1.0000
2023-04-07T09:46:21.603Z,1.0000
2023-04-07T09:47:22.834Z,1.0000
2023-04-07T09:48:24.357Z,1.0000
2023-04-07T09:49:25.733Z,1.0000
2023-04-07T09:50:27.188Z,1.0000
2023-04-07T09:51:28.719Z,1.0000
2023-04-07T09:52:30.149Z,1.0000
2023-04-07T09:53:31.589Z,1.0000
2023-04-07T09:54:32.928Z,1.0000
2023-04-07T09:55:34.412Z,0.9231
2023-04-07T09:56:35.869Z,0.9385
2023-04-07T09:57:37.222Z,0.8769
2023-04-07T09:58:38.638Z,0.9846
2023-04-07T09:59:40.102Z,1.0000
2023-04-07T10:00:41.698Z,0.9538
2023-04-07T10:01:43.224Z,0.8769
2023-04-07T10:02:44.551Z,0.8000
2023-04-07T10:03:46.317Z,0.8000
2023-04-07T10:04:47.286Z,0.8462
2023-04-07T10:05:48.821Z,0.8000
2023-04-07T10:06:50.235Z,0.9077
2023-04-07T10:07:51.535Z,0.8000
2023-04-07T10:08:53.159Z,0.8000
2023-04-07T10:09:54.567Z,0.8000
2023-04-07T10:10:55.873Z,0.8000
2023-04-07T10:11:57.471Z,0.8000
2023-04-07T10:12:58.814Z,0.8000
2023-04-07T10:14:00.293Z,0.8000
2023-04-07T10:15:01.641Z,0.8000
2023-04-07T10:16:03.192Z,0.8000
2023-04-07T10:17:04.710Z,0.8000
2023-04-07T10:18:06.109Z,0.8000
2023-04-07T10:19:07.419Z,0.8000
2023-04-07T10:20:08.973Z,0.8000
2023-04-07T10:21:10.276Z,0.8000
2023-04-07T10:22:11.765Z,0.8000
2023-04-07T10:23:13.166Z,0.8000
2023-04-07T10:24:14.505Z,0.8000
2023-04-07T10:25:16.087Z,0.8000
2023-04-07T10:26:17.480Z,0.8000
2023-04-07T10:27:18.985Z,0.8000
2023-04-07T10:28:20.365Z,0.8000
2023-04-07T10:29:21.894Z,0.8000
2023-04-07T10:30:23.344Z,0.8000
2023-04-07T10:31:24.728Z,0.8000
2023-04-07T10:32:26.751Z,0.8000
2023-04-07T10:33:27.455Z,0.8000
2023-04-07T10:34:28.976Z,0.8000
2023-04-07T10:35:30.495Z,0.8000
2023-04-07T10:36:31.904Z,0.8000
2023-04-07T10:37:33.362Z,0.8000
2023-04-07T10:38:34.749Z,0.8000
2023-04-07T10:39:36.196Z,0.8000
2023-04-07T10:40:37.707Z,0.8000
2023-04-07T10:41:39.178Z,0.8000
2023-04-07T10:42:40.591Z,0.8000
2023-04-07T10:43:42.214Z,0.8000
2023-04-07T10:44:43.282Z,0.8000
2023-04-07T10:45:44.771Z,0.8000
2023-04-07T10:46:46.222Z,0.8000
2023-04-07T10:47:48.642Z,0.8000
2023-04-07T10:48:49.091Z,0.8000
2023-04-07T10:49:50.479Z,0.8000
2023-04-07T10:50:52.071Z,0.8000
2023-04-07T10:51:53.345Z,0.8000
2023-04-07T10:52:54.895Z,0.8000
2023-04-07T10:53:56.295Z,0.8000
2023-04-07T10:54:57.755Z,0.8000
2023-04-07T10:55:59.197Z,0.8000
2023-04-07T10:57:00.545Z,0.8000
2023-04-07T10:58:02.119Z,0.8000
2023-04-07T10:59:03.532Z,0.8000
2023-04-07T11:00:04.939Z,0.8000
2023-04-07T11:01:06.306Z,0.8000
2023-04-07T11:02:07.840Z,0.8000
2023-04-07T11:03:09.378Z,0.8000
2023-04-07T11:04:10.709Z,0.8000
2023-04-07T11:05:12.083Z,0.8000
2023-04-07T11:06:13.477Z,0.8000
2023-04-07T11:07:15.024Z,0.8000
2023-04-07T11:08:16.472Z,0.8000
2023-04-07T11:09:17.859Z,0.8000
2023-04-07T11:10:20.196Z,0.8000
2023-04-07T11:11:20.766Z,0.8000
2023-04-07T11:12:22.182Z,0.8000
2023-04-07T11:13:23.682Z,0.8000
2023-04-07T11:14:24.978Z,0.8000
2023-04-07T11:15:26.444Z,0.8000
2023-04-07T11:16:27.977Z,0.8000
2023-04-07T11:17:29.381Z,0.8000
2023-04-07T11:18:30.816Z,0.8000
2023-04-07T11:19:32.224Z,0.8000
2023-04-07T11:20:33.681Z,0.8000
2023-04-07T11:21:35.086Z,0.8000
2023-04-07T11:22:36.521Z,0.8000
2023-04-07T11:23:38.238Z,0.8000
2023-04-07T11:24:39.466Z,0.8000
2023-04-07T11:25:40.855Z,0.8000
2023-04-07T11:26:42.343Z,0.8000
2023-04-07T11:27:43.756Z,0.8000
2023-04-07T11:28:45.283Z,0.8000
2023-04-07T11:29:46.610Z,0.8000
2023-04-07T11:30:48.100Z,0.8000
2023-04-07T11:31:49.545Z,0.8000
2023-04-07T11:32:50.905Z,0.8000
2023-04-07T11:33:52.374Z,0.8000
2023-04-07T11:34:53.801Z,0.8000
2023-04-07T11:35:55.239Z,0.8000
2023-04-07T11:36:56.759Z,0.8000
2023-04-07T11:37:58.128Z,0.8000
2023-04-07T11:38:59.636Z,0.8000
2023-04-07T11:40:00.995Z,0.8000
2023-04-07T11:41:02.526Z,0.8000
2023-04-07T11:42:03.903Z,0.8000
2023-04-07T11:43:05.299Z,0.8000
2023-04-07T11:44:06.826Z,0.8000
2023-04-07T11:45:08.682Z,0.8000
2023-04-07T11:46:09.591Z,0.8000
2023-04-07T11:47:11.111Z,0.8000
2023-04-07T11:48:12.494Z,0.8000
2023-04-07T11:49:14.541Z,0.8000
2023-04-07T11:50:15.335Z,0.8000
2023-04-07T11:51:16.807Z,0.8000
2023-04-07T11:52:18.239Z,0.8000
2023-04-07T11:53:19.829Z,0.8000
2023-04-07T11:54:21.160Z,0.8000
2023-04-07T11:55:22.617Z,0.8000
2023-04-07T11:56:24.030Z,0.8000
2023-04-07T11:57:25.493Z,0.8000
2023-04-07T11:58:26.871Z,0.8000
2023-04-07T11:59:28.389Z,0.8000
2023-04-07T12:00:29.722Z,0.8000
2023-04-07T12:01:31.215Z,0.8000
2023-04-07T12:02:32.825Z,0.8000
2023-04-07T12:03:34.303Z,0.8000
2023-04-07T12:04:35.659Z,0.8000
2023-04-07T12:05:37.046Z,0.8000
2023-04-07T12:06:38.485Z,0.8000
2023-04-07T12:07:39.905Z,0.8000
2023-04-07T12:08:41.350Z,0.8000
2023-04-07T12:09:42.758Z,0.8000
2023-04-07T12:10:44.515Z,0.8000
2023-04-07T12:11:46.596Z,0.8000
2023-04-07T12:12:47.041Z,0.8000
2023-04-07T12:13:48.609Z,0.8000
2023-04-07T12:14:50.033Z,0.8000
2023-04-07T12:15:51.449Z,0.8000
2023-04-07T12:16:53.068Z,0.8000
2023-04-07T12:17:54.305Z,0.8000
2023-04-07T12:18:55.750Z,0.8000
2023-04-07T12:19:57.208Z,0.8000
2023-04-07T12:20:58.653Z,0.8000
2023-04-07T12:22:00.021Z,0.8000
2023-04-07T12:23:01.459Z,0.8000
2023-04-07T12:24:03.731Z,0.8000
2023-04-07T12:25:04.439Z,0.8000
2023-04-07T12:26:05.890Z,0.8000
2023-04-07T12:27:07.295Z,0.8000
2023-04-07T12:28:08.729Z,0.8000
2023-04-07T12:29:10.293Z,0.8000
2023-04-07T12:30:11.682Z,0.8000
2023-04-07T12:31:13.016Z,0.8000
2023-04-07T12:32:15.184Z,0.8000
2023-04-07T12:33:15.946Z,0.8000
2023-04-07T12:34:18.189Z,0.8000
2023-04-07T12:35:18.894Z,0.8000
2023-04-07T12:36:20.290Z,0.8000
2023-04-07T12:37:21.689Z,0.8000
2023-04-07T12:38:23.126Z,0.8000
2023-04-07T12:39:24.663Z,0.8000
2023-04-07T12:40:26.046Z,0.8000
2023-04-07T12:41:27.497Z,0.8000
2023-04-07T12:42:28.897Z,0.8000
2023-04-07T12:43:30.339Z,0.8000
2023-04-07T12:44:31.794Z,0.8000
2023-04-07T12:45:33.270Z,0.8000
2023-04-07T12:46:35.073Z,0.8000